Time;durP1;ratioP1;P1;durP2;ratioP2;P2;SDS_P1;SDS_P2;PMS_P1;PMS_P2;Temp;Humidity;BMP_temperature;BMP_pressure;BME280_temperature;BME280_humidity;BME280_pressure;Samples;Min_cycle;Max_cycle;Signal;HPM_P1;HPM_P2
2023/05/24 00:02:02;;;;;;;7.95;5.78;;;17.50;99.90;;;;;;10322969;28;20198;-82
2023/05/24 00:07:43;;;;;;;8.80;6.28;;;17.50;1.00;;;;;;10320894;28;20424;-80
2023/05/24 00:13:05;;;;;;;7.55;5.43;;;17.40;1.00;;;;;;10295504;28;20191;-75
2023/05/24 00:18:26;;;;;;;8.75;6.40;;;17.50;1.00;;;;;;10287641;28;20264;-78
2023/05/24 00:23:50;;;;;;;9.48;5.82;;;17.40;99.90;;;;;;10321740;28;20201;-76
2023/05/24 00:29:11;;;;;;;8.63;7.18;;;17.40;99.90;;;;;;10320984;28;20387;-75
2023/05/24 00:34:32;;;;;;;9.07;6.53;;;17.30;99.90;;;;;;10299915;28;20240;-77
2023/05/24 00:39:53;;;;;;;10.07;7.13;;;17.20;99.90;;;;;;10333901;28;20190;-76
2023/05/24 00:45:15;;;;;;;11.07;7.20;;;17.10;99.90;;;;;;10319451;28;20212;-81
2023/05/24 00:50:38;;;;;;;8.80;6.03;;;17.10;1.00;;;;;;10320136;28;20197;-76
2023/05/24 00:55:59;;;;;;;11.00;6.60;;;17.10;1.00;;;;;;10320060;28;20477;-76
2023/05/24 01:01:24;;;;;;;6.65;5.97;;;17.00;15.80;;;;;;10320789;28;20489;-81
2023/05/24 01:07:04;;;;;;;8.07;6.00;;;17.20;1.00;;;;;;10331970;28;20519;-76
2023/05/24 01:12:56;;;;;;;9.75;6.50;;;17.20;1.00;;;;;;10320287;28;20273;-78
2023/05/24 01:18:30;;;;;;;9.38;6.28;;;17.20;2.00;;;;;;10331870;28;20488;-84
2023/05/24 01:24:11;;;;;;;9.32;6.07;;;17.10;1.00;;;;;;10318492;28;20205;-77
2023/05/24 01:29:34;;;;;;;9.77;6.53;;;17.10;1.00;;;;;;10319430;28;20245;-82
2023/05/24 01:34:55;;;;;;;10.52;7.07;;;17.20;1.00;;;;;;10318193;28;20230;-82
2023/05/24 01:45:46;;;;;;;9.82;6.80;;;16.90;99.90;;;;;;10328866;28;20222;-83
2023/05/24 01:51:10;;;;;;;10.05;6.88;;;;;;;;;;10321190;28;20203;-82
2023/05/24 01:56:33;;;;;;;10.93;7.53;;;16.70;99.90;;;;;;10300745;28;20433;-81
2023/05/24 02:01:55;;;;;;;10.00;6.60;;;16.70;99.90;;;;;;10316709;28;20207;-79
2023/05/24 02:07:16;;;;;;;11.10;7.10;;;16.60;28.70;;;;;;10317364;28;20403;-78
2023/05/24 02:19:33;;;;;;;9.60;5.90;;;16.60;99.90;;;;;;10315634;28;20276;-79
2023/05/24 02:42:10;;;;;;;7.18;5.88;;;16.50;1.00;;;;;;10298438;28;20221;-83
2023/05/24 02:47:31;;;;;;;7.95;6.10;;;16.30;1.00;;;;;;10315278;28;20212;-78
2023/05/24 02:52:52;;;;;;;10.05;6.35;;;16.30;99.90;;;;;;10314929;28;20388;-83
2023/05/24 02:58:16;;;;;;;14.35;7.20;;;16.20;99.90;;;;;;10328794;28;20238;-83
2023/05/24 03:03:40;;;;;;;7.63;6.78;;;16.10;1.00;;;;;;10321267;28;20204;-80
2023/05/24 03:22:07;;;;;;;8.90;5.60;;;16.10;1.00;;;;;;10271863;28;20214;-82
2023/05/24 03:27:28;;;;;;;8.55;6.10;;;16.10;1.00;;;;;;10296450;28;20217;-79
2023/05/24 03:32:50;;;;;;;8.77;6.15;;;16.10;1.00;;;;;;10311578;28;20280;-82
2023/05/24 03:38:11;;;;;;;10.98;6.85;;;16.10;1.00;;;;;;10297119;28;20241;-80
2023/05/24 03:43:36;;;;;;;10.40;7.25;;;16.10;99.90;;;;;;10312749;28;20213;-75
2023/05/24 03:49:00;;;;;;;6.13;5.53;;;16.10;1.00;;;;;;10299120;28;20244;-77
2023/05/24 03:54:21;;;;;;;9.98;6.13;;;16.00;99.90;;;;;;10327496;28;20204;-77
2023/05/24 03:59:43;;;;;;;8.98;6.32;;;16.00;1.00;;;;;;10301305;28;20380;-78
2023/05/24 04:05:09;;;;;;;9.52;6.50;;;16.00;1.00;;;;;;10323002;28;20216;-77
2023/05/24 04:10:31;;;;;;;8.50;6.13;;;16.00;1.00;;;;;;10273462;29;20197;-81
2023/05/24 04:15:52;;;;;;;6.68;5.90;;;16.00;99.90;;;;;;10279243;28;20254;-77
2023/05/24 04:21:13;;;;;;;7.70;6.38;;;16.10;99.90;;;;;;10313350;28;20193;-79
2023/05/24 04:26:36;;;;;;;9.45;7.05;;;16.10;99.90;;;;;;10326139;28;20204;-80
2023/05/24 04:31:59;;;;;;;8.98;6.07;;;16.10;99.90;;;;;;10312958;28;20224;-75
2023/05/24 04:37:20;;;;;;;8.57;6.13;;;16.10;99.90;;;;;;10311519;28;20309;-83
2023/05/24 04:42:42;;;;;;;9.98;6.45;;;16.20;1.00;;;;;;10333683;28;20205;-83
2023/05/24 04:48:03;;;;;;;8.75;6.38;;;16.30;1.00;;;;;;10338084;28;20259;-83
2023/05/24 04:53:25;;;;;;;8.13;6.20;;;16.30;1.00;;;;;;10320107;28;20200;-81
2023/05/24 04:58:46;;;;;;;10.75;6.82;;;16.40;1.00;;;;;;10319439;28;20324;-81
2023/05/24 05:04:08;;;;;;;9.43;6.35;;;16.40;1.00;;;;;;10320375;28;20198;-79
2023/05/24 05:14:49;;;;;;;8.93;6.47;;;16.40;1.00;;;;;;10333067;28;20220;-79
2023/05/24 05:20:10;;;;;;;9.25;6.65;;;16.50;1.00;;;;;;10317514;28;20718;-83
2023/05/24 05:25:31;;;;;;;11.65;7.28;;;16.60;1.00;;;;;;10320206;28;20234;-78
2023/05/24 05:30:52;;;;;;;11.63;6.28;;;16.70;1.00;;;;;;10318811;28;20209;-77
2023/05/24 05:36:14;;;;;;;8.77;6.68;;;16.80;1.00;;;;;;10318742;28;20240;-78
2023/05/24 05:41:38;;;;;;;10.38;7.78;;;16.90;1.00;;;;;;10318518;28;20200;-79
2023/05/24 05:46:59;;;;;;;12.57;7.63;;;16.90;1.00;;;;;;10318729;28;20559;-75
2023/05/24 05:52:20;;;;;;;10.40;7.18;;;16.90;1.00;;;;;;10316231;28;20201;-86
2023/05/24 05:57:41;;;;;;;90.13;55.55;;;17.00;1.00;;;;;;10318297;28;20292;-87
2023/05/24 06:03:02;;;;;;;14.55;9.63;;;17.00;1.00;;;;;;10323011;28;20190;-85
2023/05/24 06:08:25;;;;;;;15.80;7.85;;;17.10;99.90;;;;;;10320883;28;20212;-92
2023/05/24 06:13:46;;;;;;;9.75;8.13;;;17.10;1.00;;;;;;10311613;28;20198;-79
2023/05/24 06:19:07;;;;;;;15.98;7.90;;;17.20;1.00;;;;;;10332598;28;20482;-81
2023/05/24 06:24:28;;;;;;;9.02;6.50;;;17.20;99.90;;;;;;10335096;28;20198;-74
2023/05/24 06:29:50;;;;;;;8.25;6.47;;;17.30;99.90;;;;;;10299788;28;20209;-80
2023/05/24 06:35:11;;;;;;;11.48;6.60;;;17.50;99.90;;;;;;10328242;28;20304;-89
2023/05/24 06:40:32;;;;;;;12.95;6.82;;;17.70;1.00;;;;;;10285898;28;20198;-81
2023/05/24 06:45:53;;;;;;;12.60;7.03;;;17.90;1.00;;;;;;10281903;28;20277;-87
2023/05/24 06:51:14;;;;;;;14.30;7.43;;;18.20;1.00;;;;;;10330353;28;20209;-86
2023/05/24 06:56:36;;;;;;;7.07;6.25;;;18.40;1.00;;;;;;10314176;28;20285;-85
2023/05/24 07:01:57;;;;;;;7.75;5.75;;;18.70;99.90;;;;;;10311411;28;20285;-86
2023/05/24 07:07:19;;;;;;;10.85;6.95;;;19.30;99.90;;;;;;10322004;28;20206;-88
2023/05/24 07:12:42;;;;;;;7.75;6.22;;;20.30;1.00;;;;;;10305582;28;20257;-81
2023/05/24 07:18:03;;;;;;;8.27;5.95;;;20.60;1.00;;;;;;10313680;28;20246;-86
2023/05/24 07:23:25;;;;;;;10.35;6.22;;;20.80;1.00;;;;;;10285527;28;20509;-86
2023/05/24 07:28:47;;;;;;;11.55;5.80;;;21.00;1.00;;;;;;10316344;28;20194;-83
2023/05/24 07:34:08;;;;;;;12.82;6.78;;;21.20;1.00;;;;;;10311637;28;20214;-78
2023/05/24 07:39:29;;;;;;;8.55;5.80;;;21.40;1.00;;;;;;10310645;28;20866;-81
2023/05/24 07:44:50;;;;;;;7.65;5.25;;;21.30;1.00;;;;;;10294687;28;20249;-89
2023/05/24 07:50:11;;;;;;;7.85;5.47;;;21.20;1.00;;;;;;10301112;28;20556;-90
2023/05/24 07:55:32;;;;;;;7.53;5.25;;;21.00;1.00;;;;;;10306946;28;20230;-87
2023/05/24 08:00:54;;;;;;;7.15;4.63;;;20.90;1.00;;;;;;10281559;28;20309;-79
2023/05/24 08:06:17;;;;;;;9.65;5.00;;;20.90;1.00;;;;;;10290447;28;20234;-79
2023/05/24 08:11:38;;;;;;;7.25;4.93;;;21.30;1.00;;;;;;10284547;28;20199;-93
2023/05/24 08:16:59;;;;;;;7.78;4.90;;;21.70;1.00;;;;;;10308854;28;20233;-85
2023/05/24 08:22:21;;;;;;;6.72;4.00;;;22.40;1.00;;;;;;10278337;29;20191;-80
2023/05/24 08:27:42;;;;;;;17.13;9.57;;;22.80;1.00;;;;;;10321366;28;20241;-80
2023/05/24 08:33:04;;;;;;;12.02;7.30;;;23.00;1.00;;;;;;10374556;28;20197;-80
2023/05/24 08:38:25;;;;;;;9.50;4.97;;;24.00;1.00;;;;;;10315702;28;20233;-79
2023/05/24 08:43:46;;;;;;;5.88;4.78;;;25.10;99.90;;;;;;10323249;28;20502;-88
2023/05/24 08:49:11;;;;;;;8.73;4.63;;;25.40;99.90;;;;;;10321179;28;20201;-86
2023/05/24 08:54:35;;;;;;;8.90;4.35;;;25.40;99.90;;;;;;10324184;28;20211;-82
2023/05/24 08:59:56;;;;;;;5.05;4.15;;;25.10;99.90;;;;;;10323358;28;20257;-82
2023/05/24 09:05:20;;;;;;;7.18;4.03;;;26.00;99.90;;;;;;10316276;28;20198;-87
2023/05/24 09:10:41;;;;;;;7.00;5.07;;;25.90;99.90;;;;;;10336295;28;20208;-86
2023/05/24 09:16:14;;;;;;;12.38;6.20;;;25.70;99.90;;;;;;10346190;28;20547;-78
2023/05/24 09:21:36;;;;;;;9.70;4.78;;;25.50;99.90;;;;;;10302238;28;20282;-83
2023/05/24 09:27:05;;;;;;;6.35;4.57;;;25.30;99.90;;;;;;10302208;28;20221;-88
2023/05/24 09:32:27;;;;;;;7.82;5.05;;;25.40;99.90;;;;;;10332649;28;20202;-90
2023/05/24 09:37:48;;;;;;;7.18;5.43;;;25.10;99.90;;;;;;10369639;28;20478;-87
2023/05/24 09:43:10;;;;;;;6.55;4.32;;;24.80;99.90;;;;;;10365666;28;20206;-82
2023/05/24 09:48:31;;;;;;;6.55;3.90;;;24.80;99.90;;;;;;10354995;28;20311;-78
2023/05/24 09:53:56;;;;;;;5.90;4.28;;;24.80;99.90;;;;;;10331102;28;20220;-76
2023/05/24 09:59:18;;;;;;;3.63;3.28;;;24.80;99.90;;;;;;10316587;28;20321;-77
2023/05/24 10:04:39;;;;;;;6.30;3.83;;;24.90;99.90;;;;;;10312976;28;20202;-85
2023/05/24 10:10:01;;;;;;;6.85;5.43;;;25.30;99.90;;;;;;10348135;28;20276;-84
2023/05/24 10:15:23;;;;;;;8.77;3.83;;;25.40;99.90;;;;;;10354526;28;20214;-84
2023/05/24 10:20:44;;;;;;;7.43;3.80;;;25.40;99.90;;;;;;10329294;28;20241;-85
2023/05/24 10:26:08;;;;;;;5.05;3.80;;;25.40;99.90;;;;;;10312551;28;20198;-85
2023/05/24 10:31:35;;;;;;;6.90;3.90;;;25.40;99.90;;;;;;10322085;28;20294;-81
2023/05/24 10:36:58;;;;;;;6.22;4.25;;;25.90;99.90;;;;;;10332847;28;20244;-83
2023/05/24 10:42:19;;;;;;;12.75;7.32;;;26.30;99.90;;;;;;10276216;28;20246;-80
2023/05/24 10:47:39;;;;;;;9.40;4.10;;;26.40;99.90;;;;;;10309812;28;20588;-83
2023/05/24 10:53:14;;;;;;;6.90;4.07;;;26.10;99.90;;;;;;10313834;28;20199;-85
2023/05/24 10:58:58;;;;;;;11.48;3.88;;;26.00;99.90;;;;;;10306602;28;20306;-76
2023/05/24 11:04:19;;;;;;;10.10;6.00;;;25.70;99.90;;;;;;10334173;28;20206;-82
2023/05/24 11:09:45;;;;;;;11.02;4.50;;;25.70;99.90;;;;;;10310557;28;20401;-92
2023/05/24 11:15:08;;;;;;;5.57;3.80;;;25.70;99.90;;;;;;10324615;28;20414;-82
2023/05/24 11:20:29;;;;;;;8.82;4.18;;;26.30;99.90;;;;;;10308569;28;20215;-79
2023/05/24 11:25:52;;;;;;;7.93;5.40;;;27.00;99.90;;;;;;10323123;28;20213;-91
2023/05/24 11:31:13;;;;;;;116.63;9.32;;;;;;;;;;10329053;28;20285;-84
2023/05/24 11:36:35;;;;;;;7.75;4.00;;;28.50;99.90;;;;;;10312767;28;20311;-76
2023/05/24 11:41:56;;;;;;;5.57;3.85;;;29.10;99.90;;;;;;10312884;28;20227;-82
2023/05/24 11:47:20;;;;;;;7.65;4.75;;;29.20;99.90;;;;;;10328301;28;20207;-81
2023/05/24 11:52:41;;;;;;;11.63;4.15;;;28.70;99.90;;;;;;10306102;28;20210;-80
2023/05/24 11:58:25;;;;;;;20.45;5.20;;;28.60;1.00;;;;;;10272230;28;20269;-76
2023/05/24 12:03:46;;;;;;;7.18;3.85;;;28.30;99.90;;;;;;10300345;28;20194;-82
2023/05/24 12:09:09;;;;;;;9.73;3.95;;;27.60;99.90;;;;;;10310690;28;20432;-79
2023/05/24 12:14:32;;;;;;;5.65;3.60;;;27.20;99.90;;;;;;10300904;28;20545;-77
2023/05/24 12:19:54;;;;;;;5.80;3.75;;;27.20;99.90;;;;;;10297956;28;20282;-84
2023/05/24 12:25:19;;;;;;;4.32;3.53;;;27.40;99.90;;;;;;10312930;28;20222;-78
2023/05/24 12:30:45;;;;;;;4.20;3.63;;;27.70;99.90;;;;;;10316648;28;20230;-74
2023/05/24 12:36:06;;;;;;;4.10;3.70;;;27.60;99.90;;;;;;10314452;28;20237;-75
2023/05/24 12:41:29;;;;;;;3.47;3.17;;;27.40;99.90;;;;;;10323786;28;20485;-86
2023/05/24 12:46:53;;;;;;;6.07;3.15;;;27.00;99.90;;;;;;10311287;28;20285;-90
2023/05/24 12:52:14;;;;;;;4.47;2.92;;;26.60;99.90;;;;;;10306744;28;20258;-84
2023/05/24 12:57:35;;;;;;;5.32;3.78;;;26.40;99.90;;;;;;10308519;28;20459;-75
2023/05/24 13:02:58;;;;;;;3.55;3.25;;;26.40;99.90;;;;;;10311063;28;20222;-82
2023/05/24 13:08:19;;;;;;;4.43;3.45;;;26.70;99.90;;;;;;10321133;28;20281;-75
2023/05/24 13:13:42;;;;;;;4.68;3.95;;;26.70;99.90;;;;;;10314711;28;20218;-85
2023/05/24 13:19:04;;;;;;;11.55;4.90;;;26.60;99.90;;;;;;10321942;28;20616;-74
2023/05/24 13:24:26;;;;;;;1361.57;945.65;;;26.10;99.90;;;;;;10318539;28;20197;-79
2023/05/24 13:29:48;;;;;;;220.80;157.70;;;26.90;99.90;;;;;;10313225;28;20509;-84
2023/05/24 13:35:19;;;;;;;42.05;32.33;;;26.60;99.90;;;;;;10306206;28;20212;-85
2023/05/24 13:40:40;;;;;;;26.80;17.38;;;26.40;99.90;;;;;;10313064;28;20238;-87
2023/05/24 13:46:02;;;;;;;22.08;10.70;;;26.20;99.90;;;;;;10325296;28;20628;-83
2023/05/24 13:51:25;;;;;;;9.30;4.60;;;25.70;99.90;;;;;;10300319;28;20229;-82
2023/05/24 13:56:48;;;;;;;6.95;5.15;;;25.20;99.90;;;;;;10312610;28;20249;-77
2023/05/24 14:02:09;;;;;;;10.63;5.90;;;24.70;99.90;;;;;;10314912;28;20190;-81
2023/05/24 14:07:34;;;;;;;16.63;5.78;;;23.60;99.90;;;;;;10315247;28;20249;-78
2023/05/24 14:12:55;;;;;;;10.80;5.40;;;21.40;99.90;;;;;;10313997;28;20202;-77
2023/05/24 14:18:31;;;;;;;18.55;6.97;;;20.70;1.00;;;;;;10328293;28;20321;-75
2023/05/24 14:23:52;;;;;;;20.13;7.20;;;;;;;;;;10379819;28;20482;-75
2023/05/24 14:29:14;;;;;;;11.88;6.00;;;;;;;;;;10340347;28;20194;-75
2023/05/24 14:34:35;;;;;;;12.35;5.45;;;15.30;8.60;;;;;;10304110;28;20212;-74
2023/05/24 14:39:56;;;;;;;15.15;6.63;;;15.10;99.90;;;;;;10305435;28;20240;-80
2023/05/24 14:45:18;;;;;;;9.65;6.18;;;15.10;99.90;;;;;;10307617;28;20563;-76
2023/05/24 14:50:40;;;;;;;9.18;5.78;;;15.30;99.90;;;;;;10347296;28;20233;-80
2023/05/24 14:56:02;;;;;;;9.27;6.25;;;15.60;99.90;;;;;;10331836;28;20215;-78
2023/05/24 15:01:24;;;;;;;11.68;6.32;;;16.00;99.90;;;;;;10340155;28;20268;-78
2023/05/24 15:06:45;;;;;;;18.23;7.95;;;16.30;1.00;;;;;;10318464;28;20201;-77
2023/05/24 15:12:07;;;;;;;15.70;6.50;;;16.50;1.00;;;;;;10367784;28;20204;-77
2023/05/24 15:17:28;;;;;;;8.15;5.68;;;16.60;1.00;;;;;;10321399;28;20222;-77
2023/05/24 15:22:49;;;;;;;10.57;6.22;;;16.60;1.00;;;;;;10283923;28;20194;-79
2023/05/24 15:28:13;;;;;;;9.18;5.93;;;16.80;1.00;;;;;;10322733;28;20230;-75
2023/05/24 15:33:35;;;;;;;7.47;6.38;;;16.90;1.00;;;;;;10328093;28;20194;-79
2023/05/24 15:38:56;;;;;;;14.52;9.93;;;16.80;1.00;;;;;;10297451;28;20246;-76
2023/05/24 15:44:17;;;;;;;15.70;9.13;;;16.70;1.00;;;;;;10288069;28;20210;-78
2023/05/24 15:49:39;;;;;;;15.98;7.45;;;16.50;1.00;;;;;;10292307;28;20210;-81
2023/05/24 15:55:00;;;;;;;15.02;7.85;;;16.40;1.00;;;;;;10327226;28;20507;-78
2023/05/24 16:00:21;;;;;;;9.48;7.47;;;16.30;1.00;;;;;;10332587;28;20233;-75
2023/05/24 16:05:43;;;;;;;10.40;8.10;;;16.30;1.00;;;;;;10329543;28;20198;-75
2023/05/24 16:11:07;;;;;;;13.50;9.45;;;16.40;1.00;;;;;;10327870;28;20198;-87
2023/05/24 16:16:28;;;;;;;14.18;9.55;;;16.40;1.00;;;;;;10352700;28;20320;-87
2023/05/24 16:21:49;;;;;;;11.60;7.60;;;16.40;1.00;;;;;;10313012;28;20217;-88
2023/05/24 16:27:10;;;;;;;8.98;6.15;;;16.40;1.00;;;;;;10316348;28;20201;-78
2023/05/24 16:32:31;;;;;;;12.73;8.15;;;16.50;1.00;;;;;;10314385;28;20190;-82
2023/05/24 16:37:54;;;;;;;17.33;9.32;;;16.70;1.00;;;;;;10305168;28;20308;-77
2023/05/24 16:43:16;;;;;;;9.98;6.97;;;16.70;1.00;;;;;;10320962;28;20195;-81
2023/05/24 16:48:37;;;;;;;10.20;7.00;;;16.80;1.00;;;;;;10312058;28;20210;-84
2023/05/24 16:53:58;;;;;;;17.15;10.02;;;16.80;1.00;;;;;;10322099;28;20190;-86
2023/05/24 16:59:20;;;;;;;9.40;6.82;;;16.80;1.00;;;;;;10316806;28;20242;-80
2023/05/24 17:04:41;;;;;;;6.20;5.25;;;16.90;1.00;;;;;;10321533;28;20201;-89
2023/05/24 17:10:02;;;;;;;8.38;6.55;;;16.90;1.00;;;;;;10303067;28;20198;-81
2023/05/24 17:15:23;;;;;;;11.13;7.68;;;16.90;1.00;;;;;;10321347;28;20555;-90
2023/05/24 17:20:44;;;;;;;10.48;8.40;;;17.00;1.00;;;;;;10319087;28;20274;-82
2023/05/24 17:26:09;;;;;;;18.10;12.88;;;17.00;1.00;;;;;;10289269;28;20198;-75
2023/05/24 17:31:31;;;;;;;17.00;11.77;;;17.10;1.00;;;;;;10320321;28;20221;-75
2023/05/24 17:36:52;;;;;;;18.98;14.93;;;17.20;1.00;;;;;;10317376;28;20218;-84
2023/05/24 17:42:13;;;;;;;23.88;18.42;;;17.20;1.00;;;;;;10311528;28;20201;-84
2023/05/24 17:47:34;;;;;;;25.17;18.65;;;17.20;1.00;;;;;;10280092;28;20201;-77
2023/05/24 17:52:57;;;;;;;22.55;15.70;;;17.40;1.00;;;;;;10309409;28;20288;-77
2023/05/24 17:58:18;;;;;;;18.80;13.32;;;17.50;1.00;;;;;;10331397;28;20560;-77
2023/05/24 18:03:40;;;;;;;17.58;10.93;;;17.50;1.00;;;;;;10315800;28;20289;-75
2023/05/24 18:09:01;;;;;;;16.48;11.30;;;17.60;1.00;;;;;;10317558;28;20229;-76
2023/05/24 18:14:22;;;;;;;14.77;10.38;;;17.50;1.00;;;;;;10318063;28;20269;-75
2023/05/24 18:19:43;;;;;;;15.05;11.73;;;17.50;1.00;;;;;;10320036;28;20241;-85
2023/05/24 18:25:05;;;;;;;10.48;8.27;;;17.50;1.00;;;;;;10317058;28;20194;-88
2023/05/24 18:30:26;;;;;;;8.52;7.18;;;17.40;99.90;;;;;;10303764;28;20561;-90
2023/05/24 18:35:47;;;;;;;7.18;6.45;;;17.20;99.90;;;;;;10316943;28;20493;-78
2023/05/24 18:41:10;;;;;;;6.88;5.85;;;17.00;1.00;;;;;;10316030;28;20512;-75
2023/05/24 18:46:32;;;;;;;8.00;6.32;;;17.00;99.90;;;;;;10316949;28;20244;-79
2023/05/24 18:51:53;;;;;;;8.40;5.95;;;16.80;1.00;;;;;;10311857;28;20217;-83
2023/05/24 18:57:14;;;;;;;7.00;5.80;;;16.70;1.00;;;;;;10317501;28;20243;-81
2023/05/24 19:02:38;;;;;;;11.07;6.63;;;16.60;1.00;;;;;;10330182;28;20508;-90
2023/05/24 19:07:59;;;;;;;6.30;5.68;;;16.50;1.00;;;;;;10314985;28;20221;-75
2023/05/24 19:13:20;;;;;;;7.35;6.15;;;16.40;99.90;;;;;;10290871;28;20208;-76
2023/05/24 19:18:42;;;;;;;8.15;7.05;;;16.40;99.90;;;;;;10283137;28;20228;-75
2023/05/24 19:24:04;;;;;;;7.10;6.40;;;16.20;99.90;;;;;;10315520;28;20208;-75
2023/05/24 19:29:25;;;;;;;8.77;6.25;;;16.20;99.90;;;;;;10315043;28;20198;-80
2023/05/24 19:34:46;;;;;;;10.35;7.50;;;16.10;1.00;;;;;;10313415;28;20205;-75
2023/05/24 19:40:08;;;;;;;7.88;6.18;;;16.10;1.00;;;;;;10309486;28;20233;-76
2023/05/24 19:45:29;;;;;;;8.45;6.40;;;16.00;99.90;;;;;;10314003;28;20488;-76
2023/05/24 19:50:50;;;;;;;10.00;6.85;;;15.90;99.90;;;;;;10314363;28;20204;-75
2023/05/24 19:56:11;;;;;;;8.20;6.32;;;15.80;99.90;;;;;;10327425;28;20248;-78
2023/05/24 20:01:32;;;;;;;10.30;6.90;;;15.70;99.90;;;;;;10326774;28;20197;-76
2023/05/24 20:06:54;;;;;;;14.95;8.15;;;15.50;1.00;;;;;;10305085;28;20264;-75
2023/05/24 20:12:15;;;;;;;12.40;8.10;;;15.40;59.40;;;;;;10317121;28;20192;-75
2023/05/24 20:17:36;;;;;;;11.63;9.02;;;15.30;99.90;;;;;;10321895;28;20234;-76
2023/05/24 20:22:57;;;;;;;9.13;7.22;;;15.20;99.90;;;;;;10322489;28;20197;-75
2023/05/24 20:28:18;;;;;;;10.65;7.18;;;15.10;99.90;;;;;;10323435;28;20206;-75
2023/05/24 20:33:45;;;;;;;14.40;7.47;;;15.00;99.90;;;;;;10327675;28;20212;-75
2023/05/24 20:39:07;;;;;;;15.40;7.65;;;15.00;99.90;;;;;;10323590;28;20228;-76
2023/05/24 20:44:28;;;;;;;10.40;6.57;;;15.00;99.90;;;;;;10320736;28;20205;-76
2023/05/24 20:49:49;;;;;;;12.05;7.55;;;14.90;53.50;;;;;;10355037;28;20204;-76
2023/05/24 21:02:55;;;;;;;10.57;6.80;;;14.80;99.90;;;;;;10314181;28;20558;-75
2023/05/24 21:08:16;;;;;;;17.38;7.15;;;14.80;35.50;;;;;;10329092;28;20273;-79
2023/05/24 21:13:38;;;;;;;8.00;6.43;;;14.70;1.00;;;;;;10322776;28;20219;-78
2023/05/24 21:18:59;;;;;;;10.48;7.15;;;14.70;76.20;;;;;;10318552;28;20308;-79
2023/05/24 21:24:21;;;;;;;10.02;7.03;;;14.60;1.00;;;;;;10318222;28;20200;-74
2023/05/24 21:29:42;;;;;;;10.05;6.60;;;14.50;1.00;;;;;;10311521;28;20543;-74
2023/05/24 21:35:04;;;;;;;10.10;7.15;;;14.50;1.00;;;;;;10334182;28;20364;-79
2023/05/24 21:40:25;;;;;;;8.32;6.90;;;14.50;1.00;;;;;;10329945;28;20230;-77
2023/05/24 21:45:46;;;;;;;12.35;7.28;;;14.40;1.00;;;;;;10287137;28;20206;-74
2023/05/24 21:51:07;;;;;;;10.27;6.38;;;14.40;1.00;;;;;;10335816;28;20191;-74
2023/05/24 21:56:28;;;;;;;11.10;7.22;;;14.40;1.00;;;;;;10337711;28;20561;-76
2023/05/24 22:01:50;;;;;;;15.02;7.82;;;14.20;1.00;;;;;;10318433;28;20303;-79
2023/05/24 22:07:12;;;;;;;9.80;7.25;;;14.20;90.50;;;;;;10350029;28;20231;-76
2023/05/24 22:12:34;;;;;;;12.05;8.15;;;14.10;99.90;;;;;;10317241;28;20442;-74
2023/05/24 22:17:57;;;;;;;10.95;7.18;;;14.00;69.00;;;;;;10317475;28;20305;-78
2023/05/24 22:23:18;;;;;;;9.00;7.20;;;14.00;99.90;;;;;;10317819;28;20204;-77
2023/05/24 22:29:08;;;;;;;11.82;7.75;;;13.90;4.50;;;;;;10316646;28;20204;-76
2023/05/24 22:34:29;;;;;;;11.75;7.88;;;13.80;99.90;;;;;;10316720;28;20287;-82
2023/05/24 22:39:50;;;;;;;11.68;8.45;;;13.70;99.90;;;;;;10316093;28;20220;-77
2023/05/24 22:45:12;;;;;;;17.10;8.15;;;13.60;99.90;;;;;;10316765;28;20188;-77
2023/05/24 22:50:33;;;;;;;12.70;8.38;;;13.60;1.00;;;;;;10315666;28;20213;-81
2023/05/24 22:55:54;;;;;;;11.25;8.40;;;13.50;1.00;;;;;;10327307;28;20417;-76
2023/05/24 23:01:15;;;;;;;13.15;9.27;;;13.50;1.00;;;;;;10296601;28;20240;-75
2023/05/24 23:06:37;;;;;;;11.02;8.90;;;13.40;1.00;;;;;;10299420;28;20211;-75
2023/05/24 23:12:08;;;;;;;13.13;8.05;;;13.40;1.00;;;;;;10276616;28;20194;-79
2023/05/24 23:17:29;;;;;;;12.07;9.50;;;13.40;1.00;;;;;;10312890;28;20312;-81
2023/05/24 23:22:50;;;;;;;18.58;11.18;;;13.40;1.00;;;;;;10322339;28;20201;-81
2023/05/24 23:28:12;;;;;;;16.30;10.57;;;13.40;1.00;;;;;;10296987;28;20201;-87
2023/05/24 23:33:33;;;;;;;12.95;10.18;;;13.40;1.00;;;;;;10315564;28;20191;-76
2023/05/24 23:38:54;;;;;;;16.17;12.43;;;13.50;1.00;;;;;;10319931;28;20273;-78
2023/05/24 23:44:15;;;;;;;18.75;12.30;;;13.40;1.00;;;;;;10315480;28;20200;-76
2023/05/24 23:49:36;;;;;;;17.50;13.05;;;13.40;1.00;;;;;;10338390;28;20206;-77
2023/05/24 23:54:57;;;;;;;13.73;11.48;;;13.40;1.00;;;;;;10368325;28;20192;-80
